Time;durP1;ratioP1;P1;durP2;ratioP2;P2;SDS_P1;SDS_P2;PMS_P1;PMS_P2;Temp;Humidity;BMP_temperature;BMP_pressure;BME280_temperature;BME280_humidity;BME280_pressure;Samples;Min_cycle;Max_cycle;Signal;HPM_P1;HPM_P2
2022/11/24 00:01:45;;;;;;;0.65;0.60;;;;;;;17.33;36.22;100880.75;5067811;28;20051;-93
2022/11/24 00:04:11;;;;;;;0.80;0.80;;;;;;;17.44;36.10;100895.44;5057526;28;20063;-92
2022/11/24 00:06:36;;;;;;;0.88;0.85;;;;;;;17.41;36.18;100894.00;5057048;28;20026;-89
2022/11/24 00:09:03;;;;;;;0.60;0.60;;;;;;;17.40;36.11;100892.34;5046572;28;20470;-93
2022/11/24 00:11:30;;;;;;;0.75;0.70;;;;;;;17.39;36.14;100890.69;5057755;28;20254;-93
2022/11/24 00:13:56;;;;;;;0.70;0.70;;;;;;;17.41;36.25;100898.59;5067990;28;20032;-92
2022/11/24 00:16:32;;;;;;;0.90;0.80;;;;;;;17.40;36.22;100892.34;5074460;28;20024;-93
2022/11/24 00:18:59;;;;;;;0.90;0.77;;;;;;;17.41;36.15;100896.69;5075788;28;20042;-92
2022/11/24 00:21:25;;;;;;;0.80;0.80;;;;;;;17.40;36.22;100892.34;5041081;28;20621;-92
2022/11/24 00:23:51;;;;;;;0.70;0.70;;;;;;;17.24;36.32;100866.69;5042468;28;20050;-92
2022/11/24 00:26:27;;;;;;;0.82;0.80;;;;;;;17.41;36.24;100899.41;5057403;28;20486;-92
2022/11/24 00:28:54;;;;;;;1.00;0.88;;;;;;;17.24;36.13;100871.28;5059198;28;20173;-93
2022/11/24 00:31:31;;;;;;;0.65;0.65;;;;;;;17.34;36.19;100881.59;5057475;28;20044;-93
2022/11/24 00:33:58;;;;;;;1.00;0.80;;;;;;;17.30;36.18;100870.41;5057826;28;20119;-92
2022/11/24 00:36:25;;;;;;;1.13;1.00;;;;;;;17.33;36.06;100886.16;5057382;28;20837;-91
2022/11/24 00:38:58;;;;;;;0.90;0.90;;;;;;;17.33;36.32;100886.16;5040501;28;20028;-93
2022/11/24 00:41:24;;;;;;;1.13;1.02;;;;;;;17.36;36.22;100893.81;5057292;28;20020;-92
2022/11/24 00:43:50;;;;;;;1.90;1.10;;;;;;;17.36;36.25;100893.81;5057195;28;20471;-92
2022/11/24 00:46:15;;;;;;;0.75;0.75;;;;;;;17.35;36.17;100892.19;5057094;28;20061;-91
2022/11/24 00:48:41;;;;;;;0.80;0.80;;;;;;;17.27;36.09;100887.06;5040816;28;20031;-91
2022/11/24 00:51:08;;;;;;;0.82;0.70;;;;;;;17.41;35.97;100903.97;5057486;28;20437;-92
2022/11/24 00:53:34;;;;;;;1.00;0.90;;;;;;;17.38;36.14;100902.53;5075319;28;20027;-90
2022/11/24 00:56:01;;;;;;;0.80;0.80;;;;;;;17.39;36.20;100903.38;5058991;28;20493;-93
2022/11/24 00:58:26;;;;;;;0.82;0.82;;;;;;;17.39;35.84;100906.91;5063800;28;20021;-91
2022/11/24 01:00:52;;;;;;;0.98;0.90;;;;;;;17.29;36.30;100890.34;5048219;28;20039;-92
2022/11/24 01:03:18;;;;;;;2.15;0.90;;;;;;;17.34;36.12;100898.63;5053815;28;20020;-93
2022/11/24 01:05:44;;;;;;;1.10;1.00;;;;;;;17.33;36.32;100896.16;5076049;28;20024;-92
2022/11/24 01:08:10;;;;;;;1.02;0.93;;;;;;;17.35;36.07;100900.28;5073421;28;20055;-92
2022/11/24 01:10:36;;;;;;;0.80;0.80;;;;;;;17.32;36.23;100889.09;5064841;28;20357;-92
2022/11/24 01:13:01;;;;;;;1.50;1.00;;;;;;;17.37;36.26;100898.19;5050347;28;20029;-92
2022/11/24 01:15:28;;;;;;;0.98;0.88;;;;;;;17.35;36.09;100900.28;5051407;28;20383;-92
2022/11/24 01:17:55;;;;;;;0.82;0.82;;;;;;;17.35;36.30;100897.59;5057280;28;20016;-92
2022/11/24 01:20:21;;;;;;;1.20;0.98;;;;;;;17.34;36.23;100901.34;5056151;28;20008;-92
2022/11/24 01:22:49;;;;;;;1.08;0.98;;;;;;;17.34;36.19;100898.63;5049698;28;20500;-93
2022/11/24 01:25:15;;;;;;;1.10;0.90;;;;;;;17.34;36.13;100898.63;5057510;28;20025;-92
2022/11/24 01:27:41;;;;;;;1.08;0.75;;;;;;;17.36;36.04;100904.63;5074056;28;20023;-93
2022/11/24 01:30:07;;;;;;;1.08;0.98;;;;;;;17.35;36.02;100908.41;5074579;28;21180;-92
2022/11/24 01:32:34;;;;;;;1.00;0.98;;;;;;;17.34;36.10;100903.22;5056941;28;20475;-91
2022/11/24 01:35:01;;;;;;;1.25;1.10;;;;;;;17.36;36.35;100907.34;5056392;28;20032;-91
2022/11/24 01:37:26;;;;;;;1.20;1.10;;;;;;;17.29;36.37;100890.34;5075424;28;20065;-92
2022/11/24 01:39:52;;;;;;;1.10;1.00;;;;;;;17.33;36.06;100899.66;5057402;28;20039;-92
2022/11/24 01:42:18;;;;;;;1.30;1.10;;;;;;;17.29;36.17;100894.94;5071204;28;20024;-92
2022/11/24 01:44:43;;;;;;;1.15;1.05;;;;;;;17.36;36.08;100901.13;5052427;28;20020;-91
2022/11/24 01:47:28;;;;;;;1.20;1.10;;;;;;;17.35;36.14;100894.88;5057102;28;20470;-92
2022/11/24 01:49:56;;;;;;;1.08;0.95;;;;;;;17.32;36.08;100884.53;5072388;28;20133;-92
2022/11/24 01:52:32;;;;;;;1.20;1.10;;;;;;;17.32;36.10;100884.53;5072496;28;20574;-93
2022/11/24 01:54:59;;;;;;;1.25;0.90;;;;;;;17.32;35.94;100895.31;5060726;28;20028;-93
2022/11/24 01:57:40;;;;;;;1.10;1.02;;;;;;;17.34;36.15;100898.63;5060847;28;20237;-93
2022/11/24 02:00:08;;;;;;;1.02;0.93;;;;;;;17.29;36.12;100887.66;5075763;28;20102;-93
2022/11/24 02:02:33;;;;;;;0.90;0.90;;;;;;;17.28;36.01;100877.88;5079038;28;20036;-93
2022/11/24 02:05:23;;;;;;;1.23;1.00;;;;;;;17.27;36.08;100887.06;5076994;28;20172;-92
2022/11/24 02:07:49;;;;;;;1.20;1.10;;;;;;;17.18;36.08;100872.19;5073997;28;20564;-91
2022/11/24 02:10:15;;;;;;;0.80;0.80;;;;;;;17.29;36.08;100892.25;5046885;28;20024;-92
2022/11/24 02:12:43;;;;;;;1.17;1.05;;;;;;;17.27;35.93;100892.47;5060955;28;20028;-92
2022/11/24 02:15:09;;;;;;;1.17;1.08;;;;;;;17.34;35.99;100900.50;5076542;28;20063;-93
2022/11/24 02:17:35;;;;;;;1.80;0.93;;;;;;;17.28;36.02;100891.38;5060361;28;20043;-92
2022/11/24 02:20:03;;;;;;;1.10;0.90;;;;;;;17.32;35.94;100895.31;5077944;28;20032;-92
2022/11/24 02:22:46;;;;;;;1.33;0.70;;;;;;;17.32;35.98;100899.91;5060927;28;20445;-92
2022/11/24 02:25:34;;;;;;;1.25;1.10;;;;;;;17.30;36.21;100905.53;5075682;28;20036;-92
2022/11/24 02:28:00;;;;;;;1.10;1.00;;;;;;;17.30;35.96;100900.13;5078188;28;20032;-92
2022/11/24 02:30:25;;;;;;;1.00;0.90;;;;;;;17.27;36.04;100887.06;5060170;28;20063;-92
2022/11/24 02:32:51;;;;;;;1.35;1.17;;;;;;;17.28;36.01;100886.00;5060272;28;20024;-92
2022/11/24 02:35:17;;;;;;;1.08;0.98;;;;;;;17.25;36.02;100895.38;5043608;28;20028;-92
2022/11/24 02:37:42;;;;;;;1.23;1.13;;;;;;;17.26;36.14;100891.63;5059762;28;20031;-92
2022/11/24 02:40:09;;;;;;;1.20;1.10;;;;;;;17.30;36.00;100891.19;5075918;28;20032;-91
2022/11/24 02:42:40;;;;;;;1.00;0.90;;;;;;;17.26;35.98;100893.50;5059719;28;20031;-93
2022/11/24 02:45:06;;;;;;;0.90;0.90;;;;;;;17.31;36.01;100890.13;5078557;28;20383;-92
2022/11/24 02:47:31;;;;;;;0.80;0.80;;;;;;;17.15;35.93;100878.81;5066457;28;20794;-93
2022/11/24 02:50:00;;;;;;;1.00;0.90;;;;;;;17.21;36.05;100885.22;5051681;28;20033;-92
2022/11/24 02:52:26;;;;;;;1.65;0.98;;;;;;;17.21;36.06;100890.63;5074913;28;20459;-91
2022/11/24 02:54:51;;;;;;;0.90;0.90;;;;;;;17.22;35.91;100890.41;5043728;28;20016;-92
2022/11/24 02:57:17;;;;;;;0.80;0.80;;;;;;;17.25;35.89;100886.44;5074808;28;20395;-93
2022/11/24 02:59:43;;;;;;;1.40;1.20;;;;;;;17.28;36.10;100894.09;5058598;28;20028;-91
2022/11/24 03:02:09;;;;;;;0.85;0.80;;;;;;;17.27;36.05;100893.28;5058571;28;20486;-92
2022/11/24 03:04:35;;;;;;;1.00;0.90;;;;;;;17.28;35.88;100888.69;5059830;28;20026;-92
2022/11/24 03:07:00;;;;;;;0.98;0.95;;;;;;;17.26;35.98;100888.94;5042200;28;20044;-92
2022/11/24 03:09:29;;;;;;;1.05;1.00;;;;;;;17.23;36.04;100891.22;5075572;28;20390;-91
2022/11/24 03:11:54;;;;;;;1.15;0.90;;;;;;;17.29;36.27;100889.53;5057275;28;20085;-88
2022/11/24 03:14:20;;;;;;;1.05;0.95;;;;;;;17.28;36.08;100896.78;5059746;28;20020;-92
2022/11/24 03:16:46;;;;;;;1.30;1.02;;;;;;;17.26;36.11;100899.75;5059775;28;20036;-92
2022/11/24 03:19:12;;;;;;;0.82;0.80;;;;;;;17.30;36.11;100896.56;5075717;28;20035;-92
2022/11/24 03:21:37;;;;;;;1.00;0.90;;;;;;;17.24;35.99;100892.88;5041995;28;20055;-93
2022/11/24 03:24:03;;;;;;;0.82;0.82;;;;;;;17.23;35.93;100888.53;5058884;28;20035;-92
2022/11/24 03:26:29;;;;;;;0.88;0.80;;;;;;;17.23;36.10;100885.81;5058172;28;20036;-93
2022/11/24 03:28:56;;;;;;;1.33;0.85;;;;;;;17.22;35.93;100889.59;5076452;28;20058;-90
2022/11/24 03:31:22;;;;;;;1.05;0.90;;;;;;;17.29;36.02;100895.75;5072501;28;20038;-92
2022/11/24 03:33:47;;;;;;;1.23;0.98;;;;;;;17.27;36.03;100897.84;5040697;28;20032;-92
2022/11/24 03:36:13;;;;;;;1.10;1.00;;;;;;;17.29;36.08;100898.47;5066005;28;20039;-92
2022/11/24 03:38:39;;;;;;;1.25;1.08;;;;;;;17.23;36.06;100899.31;5071552;28;20057;-92
2022/11/24 03:41:05;;;;;;;0.90;0.80;;;;;;;17.18;36.06;100885.69;5058220;28;20482;-92
2022/11/24 03:43:30;;;;;;;1.13;1.00;;;;;;;17.22;36.03;100889.59;5075023;28;20390;-92
2022/11/24 03:45:56;;;;;;;0.82;0.75;;;;;;;17.15;36.01;100884.22;5074657;28;20470;-89
2022/11/24 03:48:22;;;;;;;0.90;0.90;;;;;;;17.12;36.10;100873.03;5047117;28;20031;-92
2022/11/24 03:50:58;;;;;;;0.80;0.80;;;;;;;17.27;36.08;100898.69;5055667;28;20028;-93
2022/11/24 03:53:24;;;;;;;0.85;0.80;;;;;;;17.19;36.08;100884.63;5057134;28;20054;-92
2022/11/24 03:55:50;;;;;;;1.00;0.90;;;;;;;17.25;36.00;100894.56;5053860;28;20029;-92
2022/11/24 03:58:16;;;;;;;0.95;0.85;;;;;;;17.20;36.02;100889.81;5057507;28;20035;-92
2022/11/24 04:00:41;;;;;;;1.00;0.90;;;;;;;17.26;36.01;100894.34;5052436;28;20024;-92
2022/11/24 04:03:07;;;;;;;0.93;0.82;;;;;;;17.24;36.10;100891.00;5056679;28;20028;-92
2022/11/24 04:05:35;;;;;;;0.90;0.90;;;;;;;17.20;35.94;100891.69;5074828;28;20027;-92
2022/11/24 04:08:02;;;;;;;0.80;0.80;;;;;;;17.25;36.11;100899.97;5064571;28;20031;-92
2022/11/24 04:10:29;;;;;;;1.27;0.93;;;;;;;17.24;36.12;100901.81;5040934;28;20035;-92
2022/11/24 04:12:54;;;;;;;0.95;0.80;;;;;;;17.19;36.13;100890.03;5057997;28;20039;-93
2022/11/24 04:15:20;;;;;;;0.80;0.80;;;;;;;17.26;36.14;100907.00;5076729;28;20020;-92
2022/11/24 04:17:47;;;;;;;1.10;0.80;;;;;;;17.26;36.12;100902.44;5042805;28;20123;-93
2022/11/24 04:20:12;;;;;;;0.90;0.90;;;;;;;17.22;36.03;100892.28;5058485;28;20032;-92
2022/11/24 04:22:38;;;;;;;1.33;0.80;;;;;;;17.22;36.12;100897.69;5065818;28;20498;-93
2022/11/24 04:25:04;;;;;;;1.05;0.98;;;;;;;17.15;36.11;100894.22;5050384;28;20024;-92
2022/11/24 04:27:32;;;;;;;1.08;1.00;;;;;;;17.24;35.96;100906.41;5058625;28;20220;-92
2022/11/24 04:29:57;;;;;;;0.80;0.80;;;;;;;17.20;36.16;100905.19;5057453;28;20048;-92
2022/11/24 04:32:23;;;;;;;0.70;0.70;;;;;;;17.10;35.98;100894.03;5057427;28;20115;-92
2022/11/24 04:34:48;;;;;;;0.82;0.77;;;;;;;17.14;36.09;100906.06;5042611;28;20118;-91
2022/11/24 04:37:14;;;;;;;0.90;0.90;;;;;;;17.11;35.99;100899.22;5075902;28;20020;-93
2022/11/24 04:39:40;;;;;;;1.00;0.90;;;;;;;17.15;36.10;100905.00;5073975;28;20028;-92
2022/11/24 04:42:08;;;;;;;0.93;0.88;;;;;;;17.10;36.03;100899.44;5064057;28;20535;-92
2022/11/24 04:44:34;;;;;;;0.88;0.85;;;;;;;17.14;36.02;100914.16;5075270;28;20464;-93
2022/11/24 04:47:00;;;;;;;0.80;0.80;;;;;;;17.16;36.10;100917.47;5040842;28;20328;-92
2022/11/24 04:49:26;;;;;;;0.85;0.80;;;;;;;17.10;36.04;100910.25;5074570;28;20479;-93
2022/11/24 04:51:51;;;;;;;0.77;0.73;;;;;;;17.14;36.00;100904.16;5057176;28;20027;-90
2022/11/24 04:54:17;;;;;;;1.00;0.88;;;;;;;17.14;35.87;100908.75;5045870;28;20124;-92
2022/11/24 04:56:43;;;;;;;1.00;0.90;;;;;;;17.25;36.03;100921.56;5071934;28;20036;-93
2022/11/24 04:59:14;;;;;;;0.95;0.90;;;;;;;17.25;36.11;100926.97;5036582;28;20063;-92
2022/11/24 05:01:43;;;;;;;0.80;0.80;;;;;;;17.25;36.03;100927.78;5048166;28;20020;-92
2022/11/24 05:04:13;;;;;;;1.10;1.00;;;;;;;17.22;36.05;100928.22;5052317;28;20139;-91
2022/11/24 05:06:41;;;;;;;1.60;0.80;;;;;;;17.15;36.14;100916.63;5054521;28;20020;-92
2022/11/24 05:09:07;;;;;;;0.73;0.73;;;;;;;17.16;36.25;100915.59;5067550;28;20032;-92
2022/11/24 05:11:32;;;;;;;0.80;0.80;;;;;;;17.08;36.06;100903.19;5055394;28;20124;-93
2022/11/24 05:13:58;;;;;;;0.93;0.75;;;;;;;17.24;35.97;100925.31;5057837;28;20478;-92
2022/11/24 05:16:24;;;;;;;0.88;0.85;;;;;;;17.20;36.10;100907.88;5073343;28;20234;-92
2022/11/24 05:18:49;;;;;;;1.00;0.90;;;;;;;17.17;36.07;100902.91;5075094;28;20099;-92
2022/11/24 05:21:15;;;;;;;0.95;0.80;;;;;;;17.19;36.02;100917.84;5073203;28;20024;-92
2022/11/24 05:23:41;;;;;;;0.80;0.80;;;;;;;17.18;36.13;100910.00;5074905;28;20173;-92
2022/11/24 05:26:06;;;;;;;1.35;0.80;;;;;;;17.26;36.03;100923.19;5048113;28;20040;-92
2022/11/24 05:28:32;;;;;;;0.77;0.77;;;;;;;17.26;36.03;100925.91;5041801;28;20127;-92
2022/11/24 05:30:59;;;;;;;0.70;0.70;;;;;;;17.21;36.17;100929.28;5060456;28;20028;-92
2022/11/24 05:33:27;;;;;;;0.98;0.90;;;;;;;17.26;36.05;100931.31;5044301;28;20374;-93
2022/11/24 05:35:53;;;;;;;0.77;0.77;;;;;;;17.24;35.89;100941.50;5077935;28;20050;-92
2022/11/24 05:38:19;;;;;;;1.10;0.60;;;;;;;17.24;35.98;100936.94;5059380;28;20359;-91
2022/11/24 05:40:45;;;;;;;1.10;1.00;;;;;;;17.23;36.04;100942.53;5043889;28;20047;-93
2022/11/24 05:43:12;;;;;;;0.80;0.80;;;;;;;17.26;36.04;100951.06;5077783;28;20036;-93
2022/11/24 05:45:38;;;;;;;0.88;0.82;;;;;;;17.20;36.08;100941.13;5054528;28;20386;-92
2022/11/24 05:48:09;;;;;;;0.70;0.70;;;;;;;17.15;36.09;100934.72;5044369;28;20494;-92
2022/11/24 05:50:35;;;;;;;0.85;0.85;;;;;;;17.14;36.01;100930.34;5076187;28;20157;-93
2022/11/24 05:53:05;;;;;;;0.80;0.80;;;;;;;17.21;36.12;100941.94;5078169;28;20382;-92
2022/11/24 05:55:31;;;;;;;1.00;0.90;;;;;;;17.26;36.16;100951.06;5043298;28;20047;-92
2022/11/24 05:58:00;;;;;;;0.68;0.68;;;;;;;17.23;36.14;100945.25;5073442;28;20030;-93
2022/11/24 06:00:27;;;;;;;0.95;0.85;;;;;;;17.25;35.99;100946.69;5060888;28;20024;-92
2022/11/24 06:02:52;;;;;;;1.02;0.77;;;;;;;17.23;36.18;100939.84;5050987;28;20119;-92
2022/11/24 06:05:18;;;;;;;0.80;0.70;;;;;;;17.27;36.12;100946.47;5089462;28;20123;-92
2022/11/24 06:07:44;;;;;;;0.80;0.80;;;;;;;17.24;36.04;100944.22;5038048;28;20333;-92
2022/11/24 06:10:09;;;;;;;1.05;0.70;;;;;;;17.21;36.08;100942.78;5064808;28;20035;-92
2022/11/24 06:12:35;;;;;;;1.77;1.08;;;;;;;17.25;36.12;100954.81;5076561;28;20043;-92
2022/11/24 06:15:01;;;;;;;2.40;0.85;;;;;;;17.21;36.17;100952.75;5061797;28;20024;-93
2022/11/24 06:17:26;;;;;;;0.70;0.70;;;;;;;17.21;36.01;100963.53;5072879;28;20262;-92
2022/11/24 06:19:52;;;;;;;0.95;0.80;;;;;;;17.22;36.20;100960.63;5068981;28;20023;-93
2022/11/24 06:22:18;;;;;;;0.63;0.63;;;;;;;17.26;36.18;100963.72;5061299;28;20056;-89
2022/11/24 06:24:45;;;;;;;1.00;0.80;;;;;;;17.25;36.14;100962.09;5079915;28;20111;-92
2022/11/24 06:27:11;;;;;;;1.17;0.80;;;;;;;17.24;36.25;100955.00;5080037;28;20474;-92
2022/11/24 06:29:37;;;;;;;0.80;0.80;;;;;;;17.27;36.10;100955.41;5061912;28;20449;-93
2022/11/24 06:32:07;;;;;;;0.73;0.70;;;;;;;17.20;36.15;100941.13;5076408;28;20032;-92
2022/11/24 06:34:33;;;;;;;0.88;0.70;;;;;;;17.13;35.93;100939.53;5051987;28;20555;-92
2022/11/24 06:37:01;;;;;;;0.60;0.60;;;;;;;17.15;36.07;100950.94;5043689;28;20048;-92
2022/11/24 06:39:27;;;;;;;0.90;0.90;;;;;;;17.22;36.11;100957.94;5078145;28;20031;-92
2022/11/24 06:41:52;;;;;;;0.70;0.70;;;;;;;17.27;36.09;100970.78;5078724;28;20444;-92
2022/11/24 06:44:18;;;;;;;0.77;0.70;;;;;;;17.25;36.26;100962.09;5058741;28;20081;-91
2022/11/24 06:46:43;;;;;;;0.60;0.60;;;;;;;17.20;36.05;100957.31;5078535;28;20026;-92
2022/11/24 06:49:12;;;;;;;0.60;0.60;;;;;;;17.28;36.20;100969.72;5079553;28;20051;-92
2022/11/24 06:51:38;;;;;;;0.85;0.70;;;;;;;17.23;36.13;100969.56;5071134;28;20038;-92
2022/11/24 06:54:06;;;;;;;0.57;0.57;;;;;;;17.25;36.14;100973.72;5044595;28;20024;-93
2022/11/24 06:56:32;;;;;;;0.85;0.80;;;;;;;17.23;36.13;100966.84;5059862;28;20016;-92
2022/11/24 06:58:58;;;;;;;0.63;0.63;;;;;;;17.22;36.13;100970.63;5076809;28;20032;-92
2022/11/24 07:01:25;;;;;;;0.82;0.75;;;;;;;17.25;36.18;100975.59;5078864;28;20040;-93
2022/11/24 07:03:51;;;;;;;0.60;0.60;;;;;;;17.27;36.20;100974.31;5078141;28;20085;-92
2022/11/24 07:06:16;;;;;;;0.60;0.60;;;;;;;17.27;36.14;100973.50;5077959;28;20024;-92
2022/11/24 07:08:42;;;;;;;0.95;0.65;;;;;;;17.25;36.14;100970.19;5060203;28;20498;-92
2022/11/24 07:11:10;;;;;;;1.05;0.93;;;;;;;17.29;36.24;100982.19;5068881;28;20032;-92
2022/11/24 07:13:35;;;;;;;0.73;0.73;;;;;;;17.27;36.11;100979.72;5077955;28;20019;-92
2022/11/24 07:16:30;;;;;;;0.98;0.65;;;;;;;17.27;36.08;100978.91;5077723;28;20108;-93
2022/11/24 07:18:56;;;;;;;0.63;0.60;;;;;;;17.30;36.17;100989.28;5072235;28;20407;-92
2022/11/24 07:21:23;;;;;;;0.85;0.70;;;;;;;17.24;36.14;100984.72;5060396;28;20028;-93
2022/11/24 07:23:52;;;;;;;0.85;0.70;;;;;;;17.28;36.10;101002.16;5077214;28;20443;-92
2022/11/24 07:26:18;;;;;;;0.60;0.60;;;;;;;17.22;36.30;100984.94;5076891;28;20486;-91
2022/11/24 07:28:43;;;;;;;0.68;0.65;;;;;;;17.27;36.18;100992.41;5060407;28;20750;-92
2022/11/24 07:31:11;;;;;;;0.60;0.60;;;;;;;17.28;36.10;100999.44;5060807;28;20032;-92
2022/11/24 07:33:36;;;;;;;1.02;0.60;;;;;;;17.21;36.24;100983.31;5048300;28;20031;-91
2022/11/24 07:36:08;;;;;;;0.77;0.77;;;;;;;17.30;36.16;101004.63;5076875;28;20028;-92
2022/11/24 07:38:34;;;;;;;1.00;0.60;;;;;;;17.27;36.01;101001.31;5078146;28;20020;-93
2022/11/24 07:41:07;;;;;;;0.65;0.65;;;;;;;17.25;36.18;101000.72;5065630;28;20593;-92
2022/11/24 07:43:33;;;;;;;0.68;0.60;;;;;;;17.27;36.26;101006.72;5062080;28;20355;-92
2022/11/24 07:45:59;;;;;;;0.82;0.70;;;;;;;17.29;36.16;101003.81;5073687;28;20539;-93
2022/11/24 07:48:25;;;;;;;1.70;0.60;;;;;;;17.30;35.87;101008.19;5076757;28;20277;-92
2022/11/24 07:50:50;;;;;;;0.57;0.57;;;;;;;17.27;36.32;101012.13;5073495;28;20050;-92
2022/11/24 07:53:16;;;;;;;0.68;0.68;;;;;;;17.28;36.30;101007.53;5067969;28;20067;-91
2022/11/24 07:55:42;;;;;;;0.90;0.80;;;;;;;17.32;36.29;101018.78;5060614;28;20382;-92
2022/11/24 07:58:07;;;;;;;0.70;0.70;;;;;;;17.20;36.20;100999.72;5043017;28;20131;-92
2022/11/24 08:00:33;;;;;;;0.63;0.60;;;;;;;17.25;36.22;100997.19;5041512;28;20020;-92
2022/11/24 08:02:58;;;;;;;0.80;0.70;;;;;;;17.26;36.06;101004.25;5060105;28;20055;-92
2022/11/24 08:05:27;;;;;;;0.65;0.55;;;;;;;17.26;36.16;101001.53;5060571;28;20032;-93
2022/11/24 08:07:52;;;;;;;0.80;0.70;;;;;;;17.27;36.10;101011.31;5093773;28;20367;-91
2022/11/24 08:10:18;;;;;;;0.73;0.60;;;;;;;17.30;36.25;101016.28;5059547;28;20032;-92
2022/11/24 08:12:44;;;;;;;0.85;0.70;;;;;;;17.29;36.29;101009.22;5059982;28;20391;-92
2022/11/24 08:15:09;;;;;;;0.75;0.60;;;;;;;17.33;36.31;101020.41;5043792;28;20071;-92
2022/11/24 08:17:35;;;;;;;0.63;0.63;;;;;;;17.30;36.21;101015.44;5042355;28;20504;-91
2022/11/24 08:20:01;;;;;;;0.98;0.88;;;;;;;17.31;36.38;101017.94;5065308;28;20099;-92
2022/11/24 08:22:26;;;;;;;0.63;0.52;;;;;;;17.25;36.12;101003.41;5059134;28;20398;-92
2022/11/24 08:24:52;;;;;;;0.77;0.77;;;;;;;17.31;36.24;101023.31;5068809;28;20368;-92
2022/11/24 08:27:18;;;;;;;0.98;0.60;;;;;;;17.31;36.01;101017.94;5059754;28;20451;-92
2022/11/24 08:29:44;;;;;;;0.60;0.60;;;;;;;17.33;35.98;101018.53;5059195;28;20044;-93
2022/11/24 08:32:10;;;;;;;0.70;0.70;;;;;;;17.30;36.24;101010.03;5075298;28;20613;-92
2022/11/24 08:34:36;;;;;;;0.60;0.60;;;;;;;17.31;36.24;101011.72;5061416;28;20027;-91
2022/11/24 08:37:04;;;;;;;0.98;0.73;;;;;;;17.26;36.19;101004.25;5043131;28;20032;-93
2022/11/24 08:39:30;;;;;;;0.65;0.65;;;;;;;17.26;36.26;101005.09;5059285;28;20036;-92
2022/11/24 08:41:56;;;;;;;0.93;0.70;;;;;;;17.32;36.25;101014.19;5043143;28;20294;-92
2022/11/24 08:44:22;;;;;;;0.80;0.73;;;;;;;17.32;36.28;101019.59;5041583;28;20075;-90
2022/11/24 08:46:48;;;;;;;0.80;0.57;;;;;;;17.33;36.05;101021.22;5042412;28;20097;-92
2022/11/24 08:49:14;;;;;;;0.75;0.60;;;;;;;17.35;36.39;101024.56;5040848;28;20238;-92
2022/11/24 08:51:40;;;;;;;0.68;0.68;;;;;;;17.34;36.29;101014.78;5058631;28;20036;-93
2022/11/24 08:54:07;;;;;;;0.68;0.55;;;;;;;17.29;36.29;101017.31;5039915;28;20047;-92
2022/11/24 08:56:33;;;;;;;0.82;0.73;;;;;;;17.33;36.21;101015.81;5059690;28;20112;-92
2022/11/24 08:58:58;;;;;;;0.60;0.55;;;;;;;17.21;36.33;101002.22;5059958;28;20020;-92
2022/11/24 09:01:24;;;;;;;0.73;0.73;;;;;;;17.32;36.30;101025.00;5059147;28;20038;-92
2022/11/24 09:03:50;;;;;;;0.70;0.70;;;;;;;17.33;36.29;101026.63;5078080;28;21044;-92
2022/11/24 09:06:26;;;;;;;0.70;0.70;;;;;;;17.33;36.23;101023.13;5078476;28;20127;-92
2022/11/24 09:08:55;;;;;;;0.80;0.80;;;;;;;17.32;36.22;101022.28;5062809;28;20032;-92
2022/11/24 09:11:21;;;;;;;0.98;0.85;;;;;;;17.33;36.24;101032.03;5079408;28;20024;-91
2022/11/24 09:13:46;;;;;;;0.70;0.70;;;;;;;17.34;36.24;101039.13;5079411;28;20031;-92
2022/11/24 09:16:19;;;;;;;0.50;0.50;;;;;;;17.33;36.31;101026.63;5047471;28;20490;-92
2022/11/24 09:18:45;;;;;;;0.67;0.57;;;;;;;17.34;36.17;101030.19;5070930;28;20487;-92
2022/11/24 09:21:15;;;;;;;0.70;0.63;;;;;;;17.34;36.27;101027.47;5046726;28;20089;-92
2022/11/24 09:23:41;;;;;;;0.70;0.70;;;;;;;17.35;36.35;101032.69;5071128;28;20501;-93
2022/11/24 09:26:18;;;;;;;0.63;0.63;;;;;;;17.36;36.31;101020.00;5060443;28;20028;-92
2022/11/24 09:28:44;;;;;;;0.70;0.70;;;;;;;17.36;36.37;101025.38;5078204;28;20413;-93
2022/11/24 09:31:11;;;;;;;1.00;0.70;;;;;;;17.29;36.46;101014.63;5062467;28;20042;-92
2022/11/24 09:33:36;;;;;;;0.73;0.70;;;;;;;17.36;36.20;101017.28;5062148;28;20046;-93
2022/11/24 09:36:03;;;;;;;0.80;0.80;;;;;;;17.35;36.29;101021.88;5079810;28;20012;-92
2022/11/24 09:38:31;;;;;;;1.05;0.75;;;;;;;17.35;36.25;101010.22;5061784;28;20024;-92
2022/11/24 09:41:13;;;;;;;1.00;0.82;;;;;;;17.39;36.30;101024.97;5065021;28;20115;-92
2022/11/24 09:44:00;;;;;;;1.08;0.90;;;;;;;17.36;36.25;101010.00;5063628;28;20024;-93
2022/11/24 09:46:32;;;;;;;1.08;0.63;;;;;;;17.36;36.41;101020.81;5094281;27;20487;-90
2022/11/24 09:48:57;;;;;;;0.80;0.77;;;;;;;17.38;36.38;101013.31;5066799;28;20127;-93
2022/11/24 09:51:28;;;;;;;0.88;0.85;;;;;;;17.36;36.31;101007.28;5060541;28;20110;-92
2022/11/24 09:54:15;;;;;;;0.73;0.55;;;;;;;17.35;36.46;101011.06;5043298;28;20044;-92
2022/11/24 09:56:41;;;;;;;0.98;0.70;;;;;;;17.38;36.40;101013.31;5077674;28;20109;-93
2022/11/24 09:59:20;;;;;;;0.75;0.75;;;;;;;17.40;36.40;101016.66;5058690;28;20119;-92
2022/11/24 10:01:46;;;;;;;1.02;0.60;;;;;;;17.39;36.37;101016.84;5076722;28;20035;-92
2022/11/24 10:04:34;;;;;;;0.70;0.70;;;;;;;17.40;36.47;101022.03;5047241;28;20067;-93
2022/11/24 10:07:20;;;;;;;0.70;0.60;;;;;;;17.42;36.38;101024.53;5048265;28;20038;-92
2022/11/24 10:10:07;;;;;;;1.25;0.80;;;;;;;17.42;36.47;101019.13;5107694;27;20121;-92
2022/11/24 10:13:17;;;;;;;0.80;0.70;;;;;;;17.42;36.43;101022.66;5077037;28;20039;-92
2022/11/24 10:16:03;;;;;;;1.05;0.77;;;;;;;17.34;36.40;101011.28;5078302;28;20024;-92
2022/11/24 10:18:31;;;;;;;0.75;0.70;;;;;;;17.43;36.33;101020.78;5078681;28;20104;-92
2022/11/24 10:21:15;;;;;;;0.63;0.63;;;;;;;17.41;36.27;101020.97;5080280;28;20024;-93
2022/11/24 10:24:03;;;;;;;0.70;0.60;;;;;;;17.44;36.49;101027.84;5077468;28;20031;-92
2022/11/24 10:26:39;;;;;;;0.80;0.70;;;;;;;17.39;36.43;101014.97;5078426;28;20110;-93
2022/11/24 10:29:40;;;;;;;1.05;0.70;;;;;;;17.42;36.39;101017.25;5064709;28;20044;-92
2022/11/24 10:32:21;;;;;;;1.33;0.60;;;;;;;17.38;36.43;101010.59;5074183;28;20560;-90
2022/11/24 10:34:50;;;;;;;0.90;0.80;;;;;;;17.37;36.34;101021.66;5043863;28;20483;-92
2022/11/24 10:37:24;;;;;;;0.90;0.77;;;;;;;17.42;36.46;101019.13;5046664;28;20031;-92
2022/11/24 10:40:13;;;;;;;1.00;0.88;;;;;;;17.42;36.48;101025.34;5076592;28;20020;-92
2022/11/24 10:42:39;;;;;;;0.55;0.52;;;;;;;17.42;36.24;101025.34;5043875;28;20024;-92
2022/11/24 10:45:13;;;;;;;1.00;0.82;;;;;;;17.43;36.23;101021.59;5077868;28;20623;-92
2022/11/24 10:47:39;;;;;;;0.80;0.70;;;;;;;17.44;36.38;101023.25;5060598;28;20399;-92
2022/11/24 10:50:16;;;;;;;1.20;0.82;;;;;;;17.46;36.39;101026.56;5042794;28;20553;-92
2022/11/24 10:52:45;;;;;;;1.42;0.80;;;;;;;17.45;36.53;101024.06;5079366;28;20028;-92
2022/11/24 10:55:11;;;;;;;1.45;0.95;;;;;;;17.40;36.43;101016.66;5069059;28;20510;-93
2022/11/24 10:57:37;;;;;;;0.77;0.77;;;;;;;17.43;36.42;101010.78;5061692;28;20084;-92
2022/11/24 11:00:18;;;;;;;0.70;0.70;;;;;;;17.45;36.53;101007.88;5061854;28;20405;-92
2022/11/24 11:02:43;;;;;;;0.80;0.70;;;;;;;17.45;36.47;101014.13;5078496;28;20114;-92
2022/11/24 11:05:32;;;;;;;0.73;0.73;;;;;;;17.36;36.49;101004.59;5060339;28;20530;-91
2022/11/24 11:08:13;;;;;;;1.00;0.90;;;;;;;17.46;36.47;101013.06;5060284;28;20128;-93
2022/11/24 11:10:42;;;;;;;0.82;0.80;;;;;;;17.48;36.53;101017.41;5079460;28;20464;-93
2022/11/24 11:13:28;;;;;;;0.68;0.68;;;;;;;17.45;36.39;101016.81;5070508;28;20032;-92
2022/11/24 11:15:55;;;;;;;1.00;0.90;;;;;;;17.46;36.53;101018.47;5077883;28;20024;-93
2022/11/24 11:18:21;;;;;;;0.80;0.80;;;;;;;17.48;36.51;101023.66;5077335;28;20032;-93
2022/11/24 11:20:54;;;;;;;1.08;0.90;;;;;;;17.47;36.53;101019.28;5058568;28;20103;-92
2022/11/24 11:23:31;;;;;;;0.70;0.70;;;;;;;17.45;36.40;101011.41;5060505;28;20063;-92
2022/11/24 11:26:21;;;;;;;2.05;0.80;;;;;;;17.50;36.59;101018.03;5075504;28;20070;-91
2022/11/24 11:29:01;;;;;;;0.95;0.85;;;;;;;17.49;36.61;101019.91;5077403;28;20537;-92
2022/11/24 11:31:27;;;;;;;1.08;0.98;;;;;;;17.45;36.43;101014.13;5038017;28;20037;-92